CheckWX is a tool to help pilots better visualize weather data.  It is not intended as a substitute for an official pre-flight weather briefing.

17:59:28 UTC

GLRB METAR
Roberts International Airport
Monrovia, Liberia
Current

29 mins ago

GLRB 251730Z 25011KT 9999 TS BKN012 FEW024CB 27/25 Q1013 TEMPO TS RMK CB-NE/SW/NW
Observed
Aug-25 @ 17:30 UTC
Wind
  • 250° at 11 KTS
Visibility
10,000+ meters
Flight Rules
MVFR
Conditions
Thunderstorm
Cloud Levels
  • Broken at 1,200' AGL
  • Few at 2,400' AGL
Temperature
27°C / 81°F
Dewpoint
25°C / 77°F
Heat Index
31°C / 88°F
Humidity
89%
Altimeter
29.91" Hg
Pressure
1012.92 hPa
Previous

59 mins ago

GLRB 251700Z 24010KT 9999 TS BKN012 FEW024CB 27/24 Q1012 TEMPO TS RMK CB-NE/SW/NW
Observed
Aug-25 @ 17:00 UTC
Wind
  • 240° at 10 KTS
Visibility
10,000+ meters
Flight Rules
MVFR
Conditions
Thunderstorm
Cloud Levels
  • Broken at 1,200' AGL
  • Few at 2,400' AGL
Temperature
27°C / 81°F
Dewpoint
24°C / 75°F
Heat Index
31°C / 87°F
Humidity
84%
Altimeter
29.88" Hg
Pressure
1011.92 hPa
Previous

1 hour ago

GLRB 251630Z 22010KT 9999 TS BKN012 FEW024CB 27/25 Q1012 TEMPO TS RMK CB-SE/SW/NW
Observed
Aug-25 @ 16:30 UTC
Wind
  • 220° at 10 KTS
Visibility
10,000+ meters
Flight Rules
MVFR
Conditions
Thunderstorm
Cloud Levels
  • Broken at 1,200' AGL
  • Few at 2,400' AGL
Temperature
27°C / 81°F
Dewpoint
25°C / 77°F
Heat Index
31°C / 88°F
Humidity
89%
Altimeter
29.88" Hg
Pressure
1011.92 hPa